createdAt,value
2023-09-04T00:02:42.372Z,96.66
2023-09-04T00:07:42.318Z,97.00
2023-09-04T00:12:42.286Z,97.56
2023-09-04T00:17:42.251Z,98.07
2023-09-04T00:22:42.187Z,97.97
2023-09-04T00:27:42.153Z,97.77
2023-09-04T00:32:42.143Z,98.07
2023-09-04T00:37:42.085Z,97.87
2023-09-04T00:42:42.032Z,97.97
2023-09-04T00:47:42.045Z,98.07
2023-09-04T00:52:41.958Z,97.97
2023-09-04T00:57:41.917Z,98.07
2023-09-04T01:02:41.944Z,98.18
2023-09-04T01:07:41.844Z,98.07
2023-09-04T01:12:41.833Z,98.07
2023-09-04T01:17:41.868Z,98.38
2023-09-04T01:22:41.758Z,98.38
2023-09-04T01:27:41.756Z,97.97
2023-09-04T01:32:41.760Z,98.22
2023-09-04T01:37:41.705Z,98.73
2023-09-04T01:42:41.684Z,99.29
2023-09-04T01:47:41.746Z,99.29
2023-09-04T01:52:41.633Z,99.59
2023-09-04T01:57:41.614Z,99.59
2023-09-04T02:02:41.611Z,99.49
2023-09-04T02:07:41.585Z,99.99
2023-09-04T02:12:41.557Z,99.59
2023-09-04T02:17:41.564Z,99.99
2023-09-04T02:22:41.524Z,99.99
2023-09-04T02:27:41.486Z,99.99
2023-09-04T02:32:41.510Z,99.85
2023-09-04T02:37:41.429Z,99.14
2023-09-04T02:42:41.412Z,99.29
2023-09-04T02:47:41.387Z,99.59
2023-09-04T02:52:41.346Z,99.99
2023-09-04T02:57:41.317Z,99.95
2023-09-04T03:02:41.387Z,99.44
2023-09-04T03:07:41.272Z,99.99
2023-09-04T03:12:41.247Z,99.65
2023-09-04T03:17:41.245Z,99.79
2023-09-04T03:22:41.201Z,99.99
2023-09-04T03:27:41.184Z,99.99
2023-09-04T03:32:41.151Z,99.99
2023-09-04T03:37:41.119Z,99.95
2023-09-04T03:42:41.085Z,99.99
2023-09-04T03:47:41.089Z,99.99
2023-09-04T03:52:41.006Z,99.99
2023-09-04T03:57:40.969Z,99.99
2023-09-04T04:02:40.958Z,99.99
2023-09-04T04:07:40.889Z,99.99
2023-09-04T04:12:40.875Z,99.99
2023-09-04T04:17:40.874Z,99.99
2023-09-04T04:22:40.781Z,99.99
2023-09-04T04:27:40.798Z,99.99
2023-09-04T04:32:40.830Z,99.99
2023-09-04T04:37:40.723Z,99.99
2023-09-04T04:42:40.673Z,99.99
2023-09-04T04:47:40.709Z,99.99
2023-09-04T04:52:40.651Z,99.99
2023-09-04T04:57:40.614Z,99.99
2023-09-04T05:02:40.627Z,99.99
2023-09-04T05:07:40.539Z,99.99
2023-09-04T05:12:40.495Z,99.99
2023-09-04T05:17:40.449Z,99.99
2023-09-04T05:22:40.429Z,99.99
2023-09-04T05:27:40.390Z,99.99
2023-09-04T05:32:40.352Z,99.99
2023-09-04T05:37:40.326Z,99.99
2023-09-04T05:42:40.329Z,99.55
2023-09-04T05:47:40.326Z,99.10
2023-09-04T05:52:40.306Z,98.65
2023-09-04T05:57:40.215Z,98.19
2023-09-04T06:02:40.199Z,98.19
2023-09-04T06:07:40.169Z,98.25
2023-09-04T06:12:40.083Z,98.25
2023-09-04T06:17:40.088Z,97.89
2023-09-04T06:22:40.055Z,97.80
2023-09-04T06:27:40.019Z,97.85
2023-09-04T06:32:41.762Z,97.24
2023-09-04T06:37:39.983Z,97.09
2023-09-04T06:48:39.992Z,96.95
2023-09-04T06:48:47.831Z,96.60
2023-09-04T06:53:51.418Z,95.29
2023-09-04T07:04:48.365Z,95.04
2023-09-04T07:04:53.566Z,92.42
2023-09-04T07:09:53.517Z,87.76
2023-09-04T07:14:53.471Z,87.41
2023-09-04T07:19:56.109Z,87.32
2023-09-04T07:24:53.480Z,85.46
2023-09-04T07:29:53.421Z,84.71
2023-09-04T07:34:53.379Z,82.31
2023-09-04T07:39:55.246Z,76.03
2023-09-04T07:44:55.253Z,73.64
2023-09-04T07:49:53.285Z,72.63
2023-09-04T07:54:57.739Z,59.98
2023-09-04T07:59:53.222Z,52.22
2023-09-04T08:04:54.754Z,48.54
2023-09-04T08:09:53.146Z,46.99
2023-09-04T08:15:02.578Z,45.78
2023-09-04T08:19:54.795Z,45.56
2023-09-04T08:24:55.477Z,48.07
2023-09-04T08:29:55.366Z,46.25
2023-09-04T08:34:54.880Z,44.32
2023-09-04T08:39:54.802Z,44.54
2023-09-04T08:44:52.968Z,43.19
2023-09-04T08:49:54.770Z,41.24
2023-09-04T08:54:55.896Z,41.21
2023-09-04T08:59:52.868Z,42.02
2023-09-04T09:04:54.685Z,40.16
2023-09-04T09:09:52.840Z,42.33
2023-09-04T09:14:52.809Z,40.55
2023-09-04T09:19:52.773Z,41.27
2023-09-04T09:24:54.909Z,39.98
2023-09-04T09:29:55.427Z,37.92
2023-09-04T09:34:52.628Z,40.19
2023-09-04T09:39:52.622Z,37.81
2023-09-04T09:44:52.565Z,40.82
2023-09-04T09:49:52.541Z,39.06
2023-09-04T09:54:52.481Z,39.07
2023-09-04T09:59:52.482Z,38.56
2023-09-04T10:04:52.447Z,40.80
2023-09-04T10:09:52.407Z,40.33
2023-09-04T10:14:52.361Z,42.67
2023-09-04T10:19:52.321Z,38.53
2023-09-04T10:24:52.275Z,39.56
2023-09-04T10:29:52.282Z,37.74
2023-09-04T10:34:52.255Z,38.25
2023-09-04T10:39:55.650Z,37.88
2023-09-04T10:44:52.191Z,37.33
2023-09-04T10:49:52.129Z,39.35
2023-09-04T10:54:52.142Z,37.81
2023-09-04T10:59:52.087Z,36.72
2023-09-04T11:04:52.014Z,38.29
2023-09-04T11:09:52.078Z,36.96
2023-09-04T11:14:51.944Z,35.74
2023-09-04T11:19:51.947Z,39.72
2023-09-04T11:24:51.907Z,38.80
2023-09-04T11:29:51.941Z,36.38
2023-09-04T11:34:52.033Z,37.10
2023-09-04T11:39:51.865Z,41.71
2023-09-04T11:44:51.846Z,37.73
2023-09-04T11:49:52.526Z,36.69
2023-09-04T11:54:51.830Z,35.87
2023-09-04T11:59:52.493Z,38.06
2023-09-04T12:04:51.746Z,37.06
2023-09-04T12:09:56.506Z,36.58
2023-09-04T12:22:53.632Z,37.10
2023-09-04T12:22:58.864Z,35.41
2023-09-04T12:36:02.112Z,36.05
2023-09-04T12:36:09.982Z,36.52
2023-09-04T12:41:09.932Z,36.06
2023-09-04T12:46:09.936Z,35.03
2023-09-04T12:51:24.472Z,34.62
2023-09-04T12:56:09.868Z,39.68
2023-09-04T13:01:09.849Z,43.46
2023-09-04T13:06:12.552Z,46.57
2023-09-04T13:11:10.405Z,47.56
2023-09-04T13:16:09.869Z,47.26
2023-09-04T13:21:09.715Z,46.94
2023-09-04T13:26:09.714Z,47.96
2023-09-04T13:31:12.926Z,48.27
2023-09-04T13:36:09.603Z,47.63
2023-09-04T13:41:25.820Z,48.47
2023-09-04T13:46:11.298Z,49.37
2023-09-04T13:51:09.534Z,48.65
2023-09-04T13:57:06.515Z,48.45
2023-09-04T14:01:09.552Z,48.60
2023-09-04T14:06:09.463Z,48.08
2023-09-04T14:11:09.416Z,50.78
2023-09-04T14:16:09.453Z,49.99
2023-09-04T14:21:09.375Z,50.09
2023-09-04T14:26:09.326Z,50.28
2023-09-04T14:31:09.419Z,51.20
2023-09-04T14:36:09.268Z,51.03
2023-09-04T14:41:09.254Z,51.30
2023-09-04T14:46:10.718Z,51.42
2023-09-04T14:51:09.188Z,52.02
2023-09-04T14:56:09.181Z,52.81
2023-09-04T15:01:09.190Z,51.82
2023-09-04T15:06:09.147Z,52.61
2023-09-04T15:11:14.666Z,52.91
2023-09-04T15:16:09.109Z,53.41
2023-09-04T15:21:09.022Z,53.21
2023-09-04T15:26:09.002Z,53.51
2023-09-04T15:31:09.028Z,53.41
2023-09-04T15:36:09.025Z,53.11
2023-09-04T15:41:08.964Z,53.04
2023-09-04T15:46:09.050Z,53.33
2023-09-04T15:51:08.878Z,52.64
2023-09-04T15:56:08.823Z,52.54
2023-09-04T16:01:08.840Z,51.72
2023-09-04T16:06:08.765Z,51.62
2023-09-04T16:11:08.749Z,51.95
2023-09-04T16:16:08.744Z,51.75
2023-09-04T16:21:08.717Z,52.04
2023-09-04T16:26:08.693Z,51.47
2023-09-04T16:31:08.701Z,51.77
2023-09-04T16:36:08.668Z,51.77
2023-09-04T16:41:08.642Z,51.87
2023-09-04T16:46:08.681Z,51.10
2023-09-04T16:51:08.583Z,51.50
2023-09-04T16:56:08.562Z,51.30
2023-09-04T17:01:08.580Z,52.22
2023-09-04T17:06:08.538Z,53.21
2023-09-04T17:11:08.516Z,54.93
2023-09-04T17:16:08.567Z,57.47
2023-09-04T17:21:08.467Z,60.42
2023-09-04T17:26:08.449Z,63.17
2023-09-04T17:31:08.469Z,63.20
2023-09-04T17:36:08.551Z,62.50
2023-09-04T17:41:08.413Z,64.40
2023-09-04T17:46:08.430Z,66.76
2023-09-04T17:51:08.338Z,68.99
2023-09-04T17:56:08.321Z,70.06
2023-09-04T18:01:08.309Z,71.39
2023-09-04T18:06:08.284Z,72.97
2023-09-04T18:11:08.264Z,74.94
2023-09-04T18:16:08.289Z,76.58
2023-09-04T18:21:08.201Z,78.09
2023-09-04T18:26:08.178Z,78.77
2023-09-04T18:31:08.187Z,79.71
2023-09-04T18:36:08.135Z,80.35
2023-09-04T18:41:08.116Z,81.09
2023-09-04T18:46:08.106Z,81.39
2023-09-04T18:51:08.071Z,82.94
2023-09-04T18:56:08.005Z,82.44
2023-09-04T19:01:08.055Z,82.88
2023-09-04T19:06:07.977Z,83.02
2023-09-04T19:11:07.929Z,83.76
2023-09-04T19:16:07.942Z,84.47
2023-09-04T19:21:07.860Z,84.47
2023-09-04T19:26:07.823Z,85.28
2023-09-04T19:31:07.808Z,86.13
2023-09-04T19:36:07.787Z,87.07
2023-09-04T19:41:07.734Z,87.48
2023-09-04T19:46:07.768Z,87.62
2023-09-04T19:51:07.692Z,88.02
2023-09-04T19:56:07.649Z,88.67
2023-09-04T20:01:07.636Z,88.77
2023-09-04T20:06:07.586Z,89.12
2023-09-04T20:11:07.550Z,89.52
2023-09-04T20:16:07.584Z,89.72
2023-09-04T20:21:07.510Z,89.62
2023-09-04T20:26:07.488Z,89.97
2023-09-04T20:31:07.515Z,89.97
2023-09-04T20:36:07.476Z,90.47
2023-09-04T20:41:07.396Z,90.82
2023-09-04T20:46:07.358Z,91.22
2023-09-04T20:51:07.302Z,91.53
2023-09-04T20:56:07.261Z,91.83
2023-09-04T21:01:07.311Z,92.18
2023-09-04T21:06:07.221Z,92.48
2023-09-04T21:11:07.190Z,92.79
2023-09-04T21:16:07.147Z,93.03
2023-09-04T21:21:07.155Z,93.43
2023-09-04T21:26:07.081Z,93.63
2023-09-04T21:31:07.127Z,93.78
2023-09-04T21:36:07.028Z,94.19
2023-09-04T21:41:07.025Z,94.39
2023-09-04T21:46:07.020Z,94.29
2023-09-04T21:51:06.955Z,94.19
2023-09-04T21:56:06.887Z,94.84
2023-09-04T22:01:06.926Z,95.35
2023-09-04T22:06:06.829Z,94.94
2023-09-04T22:11:06.784Z,94.98
2023-09-04T22:16:06.819Z,95.50
2023-09-04T22:21:06.693Z,95.70
2023-09-04T22:26:06.648Z,95.94
2023-09-04T22:31:06.610Z,95.59
2023-09-04T22:36:06.543Z,95.94
2023-09-04T22:41:06.545Z,96.25
2023-09-04T22:46:06.491Z,96.35
2023-09-04T22:51:06.490Z,96.35
2023-09-04T22:56:06.458Z,96.60
2023-09-04T23:01:06.532Z,96.60
2023-09-04T23:06:06.364Z,96.80
2023-09-04T23:11:06.351Z,97.00
2023-09-04T23:16:06.311Z,97.20
2023-09-04T23:21:06.311Z,97.56
2023-09-04T23:26:06.248Z,97.35
2023-09-04T23:31:06.259Z,97.56
2023-09-04T23:36:06.479Z,97.56
2023-09-04T23:41:06.198Z,97.15
2023-09-04T23:46:06.195Z,97.25
2023-09-04T23:51:06.181Z,96.95
2023-09-04T23:56:06.156Z,97.15
